sensor_id;sensor_type;location;lat;lon;timestamp;temperature;humidity
16964;DHT22;8598;50.508;10.436;2022-09-01T00:01:27;13.50;99.90
16964;DHT22;8598;50.508;10.436;2022-09-01T00:03:56;14.70;99.90
16964;DHT22;8598;50.508;10.436;2022-09-01T00:06:30;14.30;99.90
16964;DHT22;8598;50.508;10.436;2022-09-01T00:08:58;13.50;99.90
16964;DHT22;8598;50.508;10.436;2022-09-01T00:11:28;14.50;99.90
16964;DHT22;8598;50.508;10.436;2022-09-01T00:13:55;14.30;99.90
16964;DHT22;8598;50.508;10.436;2022-09-01T00:16:24;15.10;99.90
16964;DHT22;8598;50.508;10.436;2022-09-01T00:18:52;13.50;99.90
16964;DHT22;8598;50.508;10.436;2022-09-01T00:21:22;15.30;99.90
16964;DHT22;8598;50.508;10.436;2022-09-01T00:23:50;13.60;99.90
16964;DHT22;8598;50.508;10.436;2022-09-01T00:26:17;14.70;99.90
16964;DHT22;8598;50.508;10.436;2022-09-01T00:28:44;13.90;99.90
16964;DHT22;8598;50.508;10.436;2022-09-01T00:31:11;13.80;99.90
16964;DHT22;8598;50.508;10.436;2022-09-01T00:33:40;14.70;99.90
16964;DHT22;8598;50.508;10.436;2022-09-01T00:36:08;15.70;99.90
16964;DHT22;8598;50.508;10.436;2022-09-01T00:38:35;13.90;99.90
16964;DHT22;8598;50.508;10.436;2022-09-01T00:41:02;14.10;99.90
16964;DHT22;8598;50.508;10.436;2022-09-01T00:43:37;13.50;99.90
16964;DHT22;8598;50.508;10.436;2022-09-01T00:46:05;13.70;99.90
16964;DHT22;8598;50.508;10.436;2022-09-01T00:48:33;13.40;99.90
16964;DHT22;8598;50.508;10.436;2022-09-01T00:51:02;15.00;99.90
16964;DHT22;8598;50.508;10.436;2022-09-01T00:53:29;13.20;99.90
16964;DHT22;8598;50.508;10.436;2022-09-01T00:55:56;13.80;99.90
16964;DHT22;8598;50.508;10.436;2022-09-01T00:58:24;13.50;99.90
16964;DHT22;8598;50.508;10.436;2022-09-01T01:00:52;15.00;99.90
16964;DHT22;8598;50.508;10.436;2022-09-01T01:03:19;14.90;99.90
16964;DHT22;8598;50.508;10.436;2022-09-01T01:05:49;13.40;99.90
16964;DHT22;8598;50.508;10.436;2022-09-01T01:08:22;14.30;99.90
16964;DHT22;8598;50.508;10.436;2022-09-01T01:10:55;13.90;99.90
16964;DHT22;8598;50.508;10.436;2022-09-01T01:13:22;13.30;99.90
16964;DHT22;8598;50.508;10.436;2022-09-01T01:15:50;15.10;99.90
16964;DHT22;8598;50.508;10.436;2022-09-01T01:18:17;13.80;99.90
16964;DHT22;8598;50.508;10.436;2022-09-01T01:20:44;15.50;99.90
16964;DHT22;8598;50.508;10.436;2022-09-01T01:23:36;13.30;99.90
16964;DHT22;8598;50.508;10.436;2022-09-01T01:26:07;13.30;99.90
16964;DHT22;8598;50.508;10.436;2022-09-01T01:28:37;13.40;99.90
16964;DHT22;8598;50.508;10.436;2022-09-01T01:31:06;13.20;99.90
16964;DHT22;8598;50.508;10.436;2022-09-01T01:33:38;13.00;99.90
16964;DHT22;8598;50.508;10.436;2022-09-01T01:36:07;13.10;99.90
16964;DHT22;8598;50.508;10.436;2022-09-01T01:38:37;13.00;99.90
16964;DHT22;8598;50.508;10.436;2022-09-01T01:41:07;13.20;99.90
16964;DHT22;8598;50.508;10.436;2022-09-01T01:43:34;12.70;99.90
16964;DHT22;8598;50.508;10.436;2022-09-01T01:46:05;14.70;99.90
16964;DHT22;8598;50.508;10.436;2022-09-01T01:48:33;12.90;99.90
16964;DHT22;8598;50.508;10.436;2022-09-01T01:51:02;14.70;99.90
16964;DHT22;8598;50.508;10.436;2022-09-01T01:53:30;12.80;99.90
16964;DHT22;8598;50.508;10.436;2022-09-01T01:55:57;14.10;99.90
16964;DHT22;8598;50.508;10.436;2022-09-01T01:58:27;13.10;99.90
16964;DHT22;8598;50.508;10.436;2022-09-01T02:00:56;14.00;99.90
16964;DHT22;8598;50.508;10.436;2022-09-01T02:03:25;12.80;99.90
16964;DHT22;8598;50.508;10.436;2022-09-01T02:05:55;13.20;99.90
16964;DHT22;8598;50.508;10.436;2022-09-01T02:08:23;14.00;99.90
16964;DHT22;8598;50.508;10.436;2022-09-01T02:10:52;13.10;99.90
16964;DHT22;8598;50.508;10.436;2022-09-01T02:13:22;13.80;99.90
16964;DHT22;8598;50.508;10.436;2022-09-01T02:15:58;14.00;99.90
16964;DHT22;8598;50.508;10.436;2022-09-01T02:18:28;13.50;99.90
16964;DHT22;8598;50.508;10.436;2022-09-01T02:20:55;12.60;99.90
16964;DHT22;8598;50.508;10.436;2022-09-01T02:23:23;12.20;99.90
16964;DHT22;8598;50.508;10.436;2022-09-01T02:25:53;12.00;99.90
16964;DHT22;8598;50.508;10.436;2022-09-01T02:28:22;12.10;99.90
16964;DHT22;8598;50.508;10.436;2022-09-01T02:30:51;13.70;99.90
16964;DHT22;8598;50.508;10.436;2022-09-01T02:33:21;12.00;99.90
16964;DHT22;8598;50.508;10.436;2022-09-01T02:35:51;12.50;99.90
16964;DHT22;8598;50.508;10.436;2022-09-01T02:38:19;13.20;99.90
16964;DHT22;8598;50.508;10.436;2022-09-01T02:40:51;12.60;99.90
16964;DHT22;8598;50.508;10.436;2022-09-01T02:43:19;11.90;99.90
16964;DHT22;8598;50.508;10.436;2022-09-01T02:45:47;12.70;99.90
16964;DHT22;8598;50.508;10.436;2022-09-01T02:48:24;11.80;99.90
16964;DHT22;8598;50.508;10.436;2022-09-01T02:50:51;13.40;99.90
16964;DHT22;8598;50.508;10.436;2022-09-01T02:53:21;12.00;99.90
16964;DHT22;8598;50.508;10.436;2022-09-01T02:55:48;12.20;99.90
16964;DHT22;8598;50.508;10.436;2022-09-01T02:58:16;13.70;99.90
16964;DHT22;8598;50.508;10.436;2022-09-01T03:00:44;12.40;99.90
16964;DHT22;8598;50.508;10.436;2022-09-01T03:03:12;11.80;99.90
16964;DHT22;8598;50.508;10.436;2022-09-01T03:05:43;11.50;99.90
16964;DHT22;8598;50.508;10.436;2022-09-01T03:08:10;11.80;99.90
16964;DHT22;8598;50.508;10.436;2022-09-01T03:10:43;12.70;99.90
16964;DHT22;8598;50.508;10.436;2022-09-01T03:13:13;11.60;99.90
16964;DHT22;8598;50.508;10.436;2022-09-01T03:15:41;11.60;99.90
16964;DHT22;8598;50.508;10.436;2022-09-01T03:18:10;11.60;99.90
16964;DHT22;8598;50.508;10.436;2022-09-01T03:20:39;13.30;99.90
16964;DHT22;8598;50.508;10.436;2022-09-01T03:23:10;11.70;99.90
16964;DHT22;8598;50.508;10.436;2022-09-01T03:25:39;11.40;99.90
16964;DHT22;8598;50.508;10.436;2022-09-01T03:28:06;13.20;99.90
16964;DHT22;8598;50.508;10.436;2022-09-01T03:30:35;11.70;99.90
16964;DHT22;8598;50.508;10.436;2022-09-01T03:33:06;13.10;99.90
16964;DHT22;8598;50.508;10.436;2022-09-01T03:35:33;12.40;99.90
16964;DHT22;8598;50.508;10.436;2022-09-01T03:38:01;11.60;99.90
16964;DHT22;8598;50.508;10.436;2022-09-01T03:40:33;12.00;99.90
16964;DHT22;8598;50.508;10.436;2022-09-01T03:43:02;11.40;99.90
16964;DHT22;8598;50.508;10.436;2022-09-01T03:45:29;10.70;99.90
16964;DHT22;8598;50.508;10.436;2022-09-01T03:48:00;11.70;99.90
16964;DHT22;8598;50.508;10.436;2022-09-01T03:50:31;11.20;99.90
16964;DHT22;8598;50.508;10.436;2022-09-01T03:52:59;11.70;99.90
16964;DHT22;8598;50.508;10.436;2022-09-01T03:55:31;12.30;99.90
16964;DHT22;8598;50.508;10.436;2022-09-01T03:58:01;12.30;99.90
16964;DHT22;8598;50.508;10.436;2022-09-01T04:00:33;11.00;99.90
16964;DHT22;8598;50.508;10.436;2022-09-01T04:03:02;12.50;99.90
16964;DHT22;8598;50.508;10.436;2022-09-01T04:05:30;12.20;99.90
16964;DHT22;8598;50.508;10.436;2022-09-01T04:08:00;12.30;99.90
16964;DHT22;8598;50.508;10.436;2022-09-01T04:10:30;10.80;99.90
16964;DHT22;8598;50.508;10.436;2022-09-01T04:12:57;10.60;99.90
16964;DHT22;8598;50.508;10.436;2022-09-01T04:15:26;10.60;99.90
16964;DHT22;8598;50.508;10.436;2022-09-01T04:17:53;10.30;99.90
16964;DHT22;8598;50.508;10.436;2022-09-01T04:20:37;11.10;99.90
16964;DHT22;8598;50.508;10.436;2022-09-01T04:23:16;12.10;99.90
16964;DHT22;8598;50.508;10.436;2022-09-01T04:25:54;10.60;99.90
16964;DHT22;8598;50.508;10.436;2022-09-01T04:28:23;9.60;99.90
16964;DHT22;8598;50.508;10.436;2022-09-01T04:30:52;10.50;99.90
16964;DHT22;8598;50.508;10.436;2022-09-01T04:33:21;10.40;99.90
16964;DHT22;8598;50.508;10.436;2022-09-01T04:35:48;12.20;99.90
16964;DHT22;8598;50.508;10.436;2022-09-01T04:38:22;10.50;99.90
16964;DHT22;8598;50.508;10.436;2022-09-01T04:40:51;11.60;99.90
16964;DHT22;8598;50.508;10.436;2022-09-01T04:43:22;10.30;99.90
16964;DHT22;8598;50.508;10.436;2022-09-01T04:45:49;10.00;99.90
16964;DHT22;8598;50.508;10.436;2022-09-01T04:48:17;12.10;99.90
16964;DHT22;8598;50.508;10.436;2022-09-01T04:50:45;11.50;99.90
16964;DHT22;8598;50.508;10.436;2022-09-01T04:53:14;11.30;99.90
16964;DHT22;8598;50.508;10.436;2022-09-01T04:55:43;10.20;99.90
16964;DHT22;8598;50.508;10.436;2022-09-01T04:58:14;12.30;99.90
16964;DHT22;8598;50.508;10.436;2022-09-01T05:00:43;11.90;99.90
16964;DHT22;8598;50.508;10.436;2022-09-01T05:03:12;10.20;99.90
16964;DHT22;8598;50.508;10.436;2022-09-01T05:05:42;10.20;99.90
16964;DHT22;8598;50.508;10.436;2022-09-01T05:08:10;10.80;99.90
16964;DHT22;8598;50.508;10.436;2022-09-01T05:10:40;12.20;99.90
16964;DHT22;8598;50.508;10.436;2022-09-01T05:13:08;10.90;99.90
16964;DHT22;8598;50.508;10.436;2022-09-01T05:15:39;12.30;99.90
16964;DHT22;8598;50.508;10.436;2022-09-01T05:18:12;10.30;99.90
16964;DHT22;8598;50.508;10.436;2022-09-01T05:20:41;10.20;99.90
16964;DHT22;8598;50.508;10.436;2022-09-01T05:23:10;10.50;99.90
16964;DHT22;8598;50.508;10.436;2022-09-01T05:25:40;11.00;99.90
16964;DHT22;8598;50.508;10.436;2022-09-01T05:28:08;11.30;99.90
16964;DHT22;8598;50.508;10.436;2022-09-01T05:30:39;11.80;99.90
16964;DHT22;8598;50.508;10.436;2022-09-01T05:33:08;9.70;99.90
16964;DHT22;8598;50.508;10.436;2022-09-01T05:35:37;11.10;99.90
16964;DHT22;8598;50.508;10.436;2022-09-01T05:38:05;13.90;99.90
16964;DHT22;8598;50.508;10.436;2022-09-01T05:40:38;12.70;99.90
16964;DHT22;8598;50.508;10.436;2022-09-01T05:43:06;14.80;99.90
16964;DHT22;8598;50.508;10.436;2022-09-01T05:45:38;15.50;99.90
16964;DHT22;8598;50.508;10.436;2022-09-01T05:48:05;16.10;99.90
16964;DHT22;8598;50.508;10.436;2022-09-01T05:50:34;15.10;99.90
16964;DHT22;8598;50.508;10.436;2022-09-01T05:53:05;15.70;99.90
16964;DHT22;8598;50.508;10.436;2022-09-01T05:55:36;16.40;99.90
16964;DHT22;8598;50.508;10.436;2022-09-01T05:58:03;16.90;99.90
16964;DHT22;8598;50.508;10.436;2022-09-01T06:00:30;16.90;99.90
16964;DHT22;8598;50.508;10.436;2022-09-01T06:03:00;17.40;99.90
16964;DHT22;8598;50.508;10.436;2022-09-01T06:05:29;17.90;99.90
16964;DHT22;8598;50.508;10.436;2022-09-01T06:07:56;18.00;99.90
16964;DHT22;8598;50.508;10.436;2022-09-01T06:10:23;19.70;99.90
16964;DHT22;8598;50.508;10.436;2022-09-01T06:12:51;19.50;99.90
16964;DHT22;8598;50.508;10.436;2022-09-01T06:15:18;19.80;99.90
16964;DHT22;8598;50.508;10.436;2022-09-01T06:17:45;18.60;99.90
16964;DHT22;8598;50.508;10.436;2022-09-01T06:20:13;18.40;99.90
16964;DHT22;8598;50.508;10.436;2022-09-01T06:22:43;18.80;99.90
16964;DHT22;8598;50.508;10.436;2022-09-01T06:25:10;17.20;99.90
16964;DHT22;8598;50.508;10.436;2022-09-01T06:27:37;17.20;99.90
16964;DHT22;8598;50.508;10.436;2022-09-01T06:30:08;17.60;99.90
16964;DHT22;8598;50.508;10.436;2022-09-01T06:32:39;18.00;99.90
16964;DHT22;8598;50.508;10.436;2022-09-01T06:35:08;17.80;99.90
16964;DHT22;8598;50.508;10.436;2022-09-01T06:37:37;18.00;99.90
16964;DHT22;8598;50.508;10.436;2022-09-01T06:40:05;18.10;99.90
16964;DHT22;8598;50.508;10.436;2022-09-01T06:42:41;18.10;99.90
16964;DHT22;8598;50.508;10.436;2022-09-01T06:45:10;19.60;99.90
16964;DHT22;8598;50.508;10.436;2022-09-01T06:47:37;18.00;99.90
16964;DHT22;8598;50.508;10.436;2022-09-01T06:50:06;17.80;99.90
16964;DHT22;8598;50.508;10.436;2022-09-01T06:52:33;17.20;99.90
16964;DHT22;8598;50.508;10.436;2022-09-01T06:55:03;17.20;99.90
16964;DHT22;8598;50.508;10.436;2022-09-01T06:57:30;17.00;99.90
16964;DHT22;8598;50.508;10.436;2022-09-01T06:59:57;17.00;99.90
16964;DHT22;8598;50.508;10.436;2022-09-01T07:02:24;17.20;99.90
16964;DHT22;8598;50.508;10.436;2022-09-01T07:04:51;17.30;99.90
16964;DHT22;8598;50.508;10.436;2022-09-01T07:07:18;17.10;99.90
16964;DHT22;8598;50.508;10.436;2022-09-01T07:09:46;17.70;99.90
16964;DHT22;8598;50.508;10.436;2022-09-01T07:12:15;18.80;99.90
16964;DHT22;8598;50.508;10.436;2022-09-01T07:14:44;18.60;99.90
16964;DHT22;8598;50.508;10.436;2022-09-01T07:17:12;17.70;99.90
16964;DHT22;8598;50.508;10.436;2022-09-01T07:19:40;17.30;99.90
16964;DHT22;8598;50.508;10.436;2022-09-01T07:22:08;18.60;99.90
16964;DHT22;8598;50.508;10.436;2022-09-01T07:24:34;18.70;99.90
16964;DHT22;8598;50.508;10.436;2022-09-01T07:27:01;17.80;99.90
16964;DHT22;8598;50.508;10.436;2022-09-01T07:29:29;19.00;99.90
16964;DHT22;8598;50.508;10.436;2022-09-01T07:31:57;19.00;99.90
16964;DHT22;8598;50.508;10.436;2022-09-01T07:34:24;17.50;99.90
16964;DHT22;8598;50.508;10.436;2022-09-01T07:36:51;17.90;99.90
16964;DHT22;8598;50.508;10.436;2022-09-01T07:39:23;19.50;99.90
16964;DHT22;8598;50.508;10.436;2022-09-01T07:41:50;19.70;99.90
16964;DHT22;8598;50.508;10.436;2022-09-01T07:44:17;18.60;99.90
16964;DHT22;8598;50.508;10.436;2022-09-01T07:46:46;19.70;99.90
16964;DHT22;8598;50.508;10.436;2022-09-01T07:49:16;20.50;99.90
16964;DHT22;8598;50.508;10.436;2022-09-01T07:51:43;20.70;99.90
16964;DHT22;8598;50.508;10.436;2022-09-01T07:54:16;21.20;99.90
16964;DHT22;8598;50.508;10.436;2022-09-01T07:56:42;22.40;99.90
16964;DHT22;8598;50.508;10.436;2022-09-01T07:59:10;23.60;99.90
16964;DHT22;8598;50.508;10.436;2022-09-01T08:01:39;22.80;99.90
16964;DHT22;8598;50.508;10.436;2022-09-01T08:04:08;21.10;99.90
16964;DHT22;8598;50.508;10.436;2022-09-01T08:06:35;23.50;99.90
16964;DHT22;8598;50.508;10.436;2022-09-01T08:09:02;22.40;99.90
16964;DHT22;8598;50.508;10.436;2022-09-01T08:11:31;21.70;99.90
16964;DHT22;8598;50.508;10.436;2022-09-01T08:13:59;23.30;99.90
16964;DHT22;8598;50.508;10.436;2022-09-01T08:16:27;22.60;99.90
16964;DHT22;8598;50.508;10.436;2022-09-01T08:18:54;23.90;99.90
16964;DHT22;8598;50.508;10.436;2022-09-01T08:21:24;23.40;99.90
16964;DHT22;8598;50.508;10.436;2022-09-01T08:23:53;25.20;99.90
16964;DHT22;8598;50.508;10.436;2022-09-01T08:26:22;25.00;99.90
16964;DHT22;8598;50.508;10.436;2022-09-01T08:28:49;24.80;99.90
16964;DHT22;8598;50.508;10.436;2022-09-01T08:31:17;24.00;99.90
16964;DHT22;8598;50.508;10.436;2022-09-01T08:33:46;22.80;99.90
16964;DHT22;8598;50.508;10.436;2022-09-01T08:36:14;23.70;99.90
16964;DHT22;8598;50.508;10.436;2022-09-01T08:38:43;22.30;99.90
16964;DHT22;8598;50.508;10.436;2022-09-01T08:41:15;23.10;99.90
16964;DHT22;8598;50.508;10.436;2022-09-01T08:43:52;22.10;99.90
16964;DHT22;8598;50.508;10.436;2022-09-01T08:46:25;21.90;99.90
16964;DHT22;8598;50.508;10.436;2022-09-01T08:48:55;24.40;99.90
16964;DHT22;8598;50.508;10.436;2022-09-01T08:51:35;23.40;99.90
16964;DHT22;8598;50.508;10.436;2022-09-01T08:54:14;23.60;99.90
16964;DHT22;8598;50.508;10.436;2022-09-01T08:56:46;22.70;99.90
16964;DHT22;8598;50.508;10.436;2022-09-01T08:59:15;23.70;99.90
16964;DHT22;8598;50.508;10.436;2022-09-01T09:01:47;22.40;99.90
16964;DHT22;8598;50.508;10.436;2022-09-01T09:04:31;22.90;99.90
16964;DHT22;8598;50.508;10.436;2022-09-01T09:07:07;21.50;99.90
16964;DHT22;8598;50.508;10.436;2022-09-01T09:09:42;21.60;99.90
16964;DHT22;8598;50.508;10.436;2022-09-01T09:12:20;23.50;99.90
16964;DHT22;8598;50.508;10.436;2022-09-01T09:15:00;22.50;99.90
16964;DHT22;8598;50.508;10.436;2022-09-01T09:17:35;22.70;99.90
16964;DHT22;8598;50.508;10.436;2022-09-01T09:20:05;21.80;99.90
16964;DHT22;8598;50.508;10.436;2022-09-01T09:22:32;22.10;99.90
16964;DHT22;8598;50.508;10.436;2022-09-01T09:25:07;22.60;99.90
16964;DHT22;8598;50.508;10.436;2022-09-01T09:27:36;21.70;99.90
16964;DHT22;8598;50.508;10.436;2022-09-01T09:30:06;22.40;99.90
16964;DHT22;8598;50.508;10.436;2022-09-01T09:32:46;23.00;99.90
16964;DHT22;8598;50.508;10.436;2022-09-01T09:35:27;22.40;99.90
16964;DHT22;8598;50.508;10.436;2022-09-01T09:37:56;23.40;99.90
16964;DHT22;8598;50.508;10.436;2022-09-01T09:40:56;22.20;99.90
16964;DHT22;8598;50.508;10.436;2022-09-01T09:43:24;23.40;99.90
16964;DHT22;8598;50.508;10.436;2022-09-01T09:46:20;22.90;99.90
16964;DHT22;8598;50.508;10.436;2022-09-01T09:48:47;23.50;99.90
16964;DHT22;8598;50.508;10.436;2022-09-01T09:51:15;23.60;99.90
16964;DHT22;8598;50.508;10.436;2022-09-01T09:53:42;23.30;99.90
16964;DHT22;8598;50.508;10.436;2022-09-01T09:56:16;21.90;99.90
16964;DHT22;8598;50.508;10.436;2022-09-01T09:58:45;23.40;99.90
16964;DHT22;8598;50.508;10.436;2022-09-01T10:01:14;22.30;99.90
16964;DHT22;8598;50.508;10.436;2022-09-01T10:03:54;22.10;99.90
16964;DHT22;8598;50.508;10.436;2022-09-01T10:06:33;22.50;99.90
16964;DHT22;8598;50.508;10.436;2022-09-01T10:09:05;22.20;99.90
16964;DHT22;8598;50.508;10.436;2022-09-01T10:11:37;22.10;99.90
16964;DHT22;8598;50.508;10.436;2022-09-01T10:14:06;22.80;99.90
16964;DHT22;8598;50.508;10.436;2022-09-01T10:16:37;23.20;99.90
16964;DHT22;8598;50.508;10.436;2022-09-01T10:19:10;23.10;99.70
16964;DHT22;8598;50.508;10.436;2022-09-01T10:21:39;23.30;99.90
16964;DHT22;8598;50.508;10.436;2022-09-01T10:24:17;23.40;99.90
16964;DHT22;8598;50.508;10.436;2022-09-01T10:26:49;22.80;99.20
16964;DHT22;8598;50.508;10.436;2022-09-01T10:29:21;22.40;99.30
16964;DHT22;8598;50.508;10.436;2022-09-01T10:31:50;22.80;99.50
16964;DHT22;8598;50.508;10.436;2022-09-01T10:34:20;22.70;99.00
16964;DHT22;8598;50.508;10.436;2022-09-01T10:36:47;22.80;98.80
16964;DHT22;8598;50.508;10.436;2022-09-01T10:39:17;22.50;98.50
16964;DHT22;8598;50.508;10.436;2022-09-01T10:41:49;23.00;99.10
16964;DHT22;8598;50.508;10.436;2022-09-01T10:44:22;22.70;99.40
16964;DHT22;8598;50.508;10.436;2022-09-01T10:46:51;24.00;98.00
16964;DHT22;8598;50.508;10.436;2022-09-01T10:55:15;22.30;98.20
16964;DHT22;8598;50.508;10.436;2022-09-01T10:57:52;22.70;98.50
16964;DHT22;8598;50.508;10.436;2022-09-01T11:03:50;23.70;97.90
16964;DHT22;8598;50.508;10.436;2022-09-01T11:06:56;23.70;97.20
16964;DHT22;8598;50.508;10.436;2022-09-01T11:09:29;23.30;96.50
16964;DHT22;8598;50.508;10.436;2022-09-01T11:12:09;23.20;97.00
16964;DHT22;8598;50.508;10.436;2022-09-01T11:14:49;23.30;96.60
16964;DHT22;8598;50.508;10.436;2022-09-01T11:17:19;23.00;95.80
16964;DHT22;8598;50.508;10.436;2022-09-01T11:19:54;24.30;96.20
16964;DHT22;8598;50.508;10.436;2022-09-01T11:22:34;24.90;96.00
16964;DHT22;8598;50.508;10.436;2022-09-01T11:25:36;24.50;95.40
16964;DHT22;8598;50.508;10.436;2022-09-01T11:28:09;24.90;95.80
16964;DHT22;8598;50.508;10.436;2022-09-01T11:31:00;24.30;95.20
16964;DHT22;8598;50.508;10.436;2022-09-01T11:33:46;24.10;95.20
16964;DHT22;8598;50.508;10.436;2022-09-01T11:36:26;24.50;95.00
16964;DHT22;8598;50.508;10.436;2022-09-01T11:39:01;26.40;94.80
16964;DHT22;8598;50.508;10.436;2022-09-01T11:41:31;26.20;94.60
16964;DHT22;8598;50.508;10.436;2022-09-01T11:44:01;25.00;95.00
16964;DHT22;8598;50.508;10.436;2022-09-01T11:46:32;25.00;94.40
16964;DHT22;8598;50.508;10.436;2022-09-01T11:49:05;25.00;94.10
16964;DHT22;8598;50.508;10.436;2022-09-01T11:51:43;25.50;94.00
16964;DHT22;8598;50.508;10.436;2022-09-01T11:54:12;24.60;93.90
16964;DHT22;8598;50.508;10.436;2022-09-01T11:56:42;24.60;93.90
16964;DHT22;8598;50.508;10.436;2022-09-01T11:59:09;24.80;94.90
16964;DHT22;8598;50.508;10.436;2022-09-01T12:01:38;24.40;93.70
16964;DHT22;8598;50.508;10.436;2022-09-01T12:04:20;24.20;93.50
16964;DHT22;8598;50.508;10.436;2022-09-01T12:06:53;24.10;93.70
16964;DHT22;8598;50.508;10.436;2022-09-01T12:09:21;25.10;93.80
16964;DHT22;8598;50.508;10.436;2022-09-01T12:11:48;23.90;94.70
16964;DHT22;8598;50.508;10.436;2022-09-01T12:14:20;23.60;94.30
16964;DHT22;8598;50.508;10.436;2022-09-01T12:16:58;23.60;94.10
16964;DHT22;8598;50.508;10.436;2022-09-01T12:19:27;23.50;94.80
16964;DHT22;8598;50.508;10.436;2022-09-01T12:22:00;23.20;95.20
16964;DHT22;8598;50.508;10.436;2022-09-01T12:24:31;23.00;95.40
16964;DHT22;8598;50.508;10.436;2022-09-01T12:27:00;23.10;95.50
16964;DHT22;8598;50.508;10.436;2022-09-01T12:29:27;23.60;96.00
16964;DHT22;8598;50.508;10.436;2022-09-01T12:31:58;22.90;95.10
16964;DHT22;8598;50.508;10.436;2022-09-01T12:34:35;24.10;96.00
16964;DHT22;8598;50.508;10.436;2022-09-01T12:37:06;24.30;95.40
16964;DHT22;8598;50.508;10.436;2022-09-01T12:39:34;23.00;95.40
16964;DHT22;8598;50.508;10.436;2022-09-01T12:42:08;23.00;95.60
16964;DHT22;8598;50.508;10.436;2022-09-01T12:44:44;23.00;95.20
16964;DHT22;8598;50.508;10.436;2022-09-01T12:47:43;23.00;94.80
16964;DHT22;8598;50.508;10.436;2022-09-01T12:50:40;23.30;94.70
16964;DHT22;8598;50.508;10.436;2022-09-01T12:53:18;23.80;94.70
16964;DHT22;8598;50.508;10.436;2022-09-01T12:55:56;24.00;93.90
16964;DHT22;8598;50.508;10.436;2022-09-01T12:58:26;23.80;93.80
16964;DHT22;8598;50.508;10.436;2022-09-01T13:00:56;24.10;94.00
16964;DHT22;8598;50.508;10.436;2022-09-01T13:03:25;25.40;94.00
16964;DHT22;8598;50.508;10.436;2022-09-01T13:05:54;25.00;93.40
16964;DHT22;8598;50.508;10.436;2022-09-01T13:08:24;24.90;93.30
16964;DHT22;8598;50.508;10.436;2022-09-01T13:10:54;24.80;93.40
16964;DHT22;8598;50.508;10.436;2022-09-01T13:13:23;25.00;93.60
16964;DHT22;8598;50.508;10.436;2022-09-01T13:15:51;24.40;93.00
16964;DHT22;8598;50.508;10.436;2022-09-01T13:18:22;24.10;93.40
16964;DHT22;8598;50.508;10.436;2022-09-01T13:20:51;24.10;93.80
16964;DHT22;8598;50.508;10.436;2022-09-01T13:23:18;24.70;94.00
16964;DHT22;8598;50.508;10.436;2022-09-01T13:25:46;23.90;94.30
16964;DHT22;8598;50.508;10.436;2022-09-01T13:28:13;25.60;95.00
16964;DHT22;8598;50.508;10.436;2022-09-01T13:30:42;23.70;94.80
16964;DHT22;8598;50.508;10.436;2022-09-01T13:33:09;24.00;95.30
16964;DHT22;8598;50.508;10.436;2022-09-01T13:35:37;24.20;95.70
16964;DHT22;8598;50.508;10.436;2022-09-01T13:38:05;23.80;95.50
16964;DHT22;8598;50.508;10.436;2022-09-01T13:40:33;23.20;94.80
16964;DHT22;8598;50.508;10.436;2022-09-01T13:43:00;24.40;94.90
16964;DHT22;8598;50.508;10.436;2022-09-01T13:45:29;23.30;94.80
16964;DHT22;8598;50.508;10.436;2022-09-01T13:47:55;23.20;95.00
16964;DHT22;8598;50.508;10.436;2022-09-01T13:50:23;23.70;94.20
16964;DHT22;8598;50.508;10.436;2022-09-01T13:52:53;24.30;94.20
16964;DHT22;8598;50.508;10.436;2022-09-01T13:55:23;23.10;94.00
16964;DHT22;8598;50.508;10.436;2022-09-01T13:57:50;22.90;94.60
16964;DHT22;8598;50.508;10.436;2022-09-01T14:00:24;24.50;94.70
16964;DHT22;8598;50.508;10.436;2022-09-01T14:02:55;23.10;93.20
16964;DHT22;8598;50.508;10.436;2022-09-01T14:05:25;23.20;93.40
16964;DHT22;8598;50.508;10.436;2022-09-01T14:07:53;23.90;93.60
16964;DHT22;8598;50.508;10.436;2022-09-01T14:10:23;23.60;94.00
16964;DHT22;8598;50.508;10.436;2022-09-01T14:12:51;24.10;93.70
16964;DHT22;8598;50.508;10.436;2022-09-01T14:15:19;24.10;93.80
16964;DHT22;8598;50.508;10.436;2022-09-01T14:17:47;24.30;93.50
16964;DHT22;8598;50.508;10.436;2022-09-01T14:20:16;24.40;93.70
16964;DHT22;8598;50.508;10.436;2022-09-01T14:22:44;24.50;92.90
16964;DHT22;8598;50.508;10.436;2022-09-01T14:25:11;25.80;92.80
16964;DHT22;8598;50.508;10.436;2022-09-01T14:27:39;24.30;92.60
16964;DHT22;8598;50.508;10.436;2022-09-01T14:30:15;25.80;93.10
16964;DHT22;8598;50.508;10.436;2022-09-01T14:32:42;24.30;92.40
16964;DHT22;8598;50.508;10.436;2022-09-01T14:35:09;24.10;92.90
16964;DHT22;8598;50.508;10.436;2022-09-01T14:37:36;23.80;93.30
16964;DHT22;8598;50.508;10.436;2022-09-01T14:40:04;22.60;92.90
16964;DHT22;8598;50.508;10.436;2022-09-01T14:42:32;23.30;93.80
16964;DHT22;8598;50.508;10.436;2022-09-01T14:45:02;24.10;94.60
16964;DHT22;8598;50.508;10.436;2022-09-01T14:47:30;23.50;94.70
16964;DHT22;8598;50.508;10.436;2022-09-01T14:49:57;22.80;94.50
16964;DHT22;8598;50.508;10.436;2022-09-01T14:52:24;22.90;94.50
16964;DHT22;8598;50.508;10.436;2022-09-01T14:54:51;23.50;95.00
16964;DHT22;8598;50.508;10.436;2022-09-01T14:57:19;22.80;94.80
16964;DHT22;8598;50.508;10.436;2022-09-01T14:59:46;22.80;95.10
16964;DHT22;8598;50.508;10.436;2022-09-01T15:02:14;22.60;95.80
16964;DHT22;8598;50.508;10.436;2022-09-01T15:04:41;22.80;95.60
16964;DHT22;8598;50.508;10.436;2022-09-01T15:07:07;24.40;95.80
16964;DHT22;8598;50.508;10.436;2022-09-01T15:09:35;24.40;96.10
16964;DHT22;8598;50.508;10.436;2022-09-01T15:12:02;24.00;95.20
16964;DHT22;8598;50.508;10.436;2022-09-01T15:14:30;22.80;95.00
16964;DHT22;8598;50.508;10.436;2022-09-01T15:16:57;24.40;95.70
16964;DHT22;8598;50.508;10.436;2022-09-01T15:19:25;22.60;95.10
16964;DHT22;8598;50.508;10.436;2022-09-01T15:21:52;23.00;95.60
16964;DHT22;8598;50.508;10.436;2022-09-01T15:24:19;22.60;95.20
16964;DHT22;8598;50.508;10.436;2022-09-01T15:26:47;22.60;94.60
16964;DHT22;8598;50.508;10.436;2022-09-01T15:29:14;23.80;95.40
16964;DHT22;8598;50.508;10.436;2022-09-01T15:31:42;22.60;95.60
16964;DHT22;8598;50.508;10.436;2022-09-01T15:34:10;23.60;95.60
16964;DHT22;8598;50.508;10.436;2022-09-01T15:36:40;23.80;95.50
16964;DHT22;8598;50.508;10.436;2022-09-01T15:39:09;22.90;95.50
16964;DHT22;8598;50.508;10.436;2022-09-01T15:41:37;23.40;95.90
16964;DHT22;8598;50.508;10.436;2022-09-01T15:44:06;22.30;95.60
16964;DHT22;8598;50.508;10.436;2022-09-01T15:46:34;22.30;94.90
16964;DHT22;8598;50.508;10.436;2022-09-01T15:49:05;22.30;95.10
16964;DHT22;8598;50.508;10.436;2022-09-01T15:51:33;22.20;95.00
16964;DHT22;8598;50.508;10.436;2022-09-01T15:54:05;22.30;95.20
16964;DHT22;8598;50.508;10.436;2022-09-01T15:56:32;23.30;95.40
16964;DHT22;8598;50.508;10.436;2022-09-01T15:59:00;22.20;95.10